createdAt,value
2022-11-02T00:00:48.873Z,66.36
2022-11-02T00:03:16.564Z,67.37
2022-11-02T00:05:44.290Z,67.39
2022-11-02T00:08:11.975Z,69.35
2022-11-02T00:10:39.624Z,67.24
2022-11-02T00:13:07.701Z,67.31
2022-11-02T00:15:37.379Z,67.14
2022-11-02T00:18:09.045Z,67.72
2022-11-02T00:20:36.911Z,66.58
2022-11-02T00:23:06.420Z,67.38
2022-11-02T00:25:34.932Z,67.98
2022-11-02T00:28:02.655Z,67.50
2022-11-02T00:30:30.429Z,66.34
2022-11-02T00:32:58.102Z,68.30
2022-11-02T00:35:27.103Z,68.57
2022-11-02T00:37:54.769Z,69.49
2022-11-02T00:40:22.594Z,71.72
2022-11-02T00:42:50.272Z,74.75
2022-11-02T00:45:18.471Z,74.46
2022-11-02T00:47:46.119Z,72.69
2022-11-02T00:50:13.810Z,73.08
2022-11-02T00:52:42.838Z,73.49
2022-11-02T00:55:11.896Z,73.14
2022-11-02T00:57:40.163Z,72.59
2022-11-02T01:00:10.184Z,72.08
2022-11-02T01:02:38.044Z,72.01
2022-11-02T01:05:06.690Z,71.10
2022-11-02T01:07:34.410Z,71.17
2022-11-02T01:10:03.428Z,71.12
2022-11-02T01:12:31.115Z,71.21
2022-11-02T01:14:58.774Z,72.23
2022-11-02T01:17:26.559Z,71.62
2022-11-02T01:19:54.310Z,72.44
2022-11-02T01:22:21.931Z,72.41
2022-11-02T01:24:49.619Z,72.24
2022-11-02T01:27:18.642Z,73.51
2022-11-02T01:29:46.291Z,73.65
2022-11-02T01:32:14.055Z,72.70
2022-11-02T01:34:41.702Z,72.90
2022-11-02T01:37:09.368Z,73.22
2022-11-02T01:39:37.116Z,72.68
2022-11-02T01:42:05.176Z,71.54
2022-11-02T01:44:35.557Z,71.40
2022-11-02T01:47:07.116Z,73.60
2022-11-02T01:49:37.303Z,72.74
2022-11-02T01:52:08.393Z,73.16
2022-11-02T01:54:39.036Z,73.70
2022-11-02T01:57:08.980Z,73.99
2022-11-02T01:59:41.428Z,75.14
2022-11-02T02:02:15.383Z,76.49
2022-11-02T02:04:43.788Z,77.92
2022-11-02T02:07:11.885Z,77.55
2022-11-02T02:09:39.524Z,75.96
2022-11-02T02:12:07.715Z,77.40
2022-11-02T02:14:35.760Z,75.41
2022-11-02T02:17:30.805Z,76.24
2022-11-02T02:20:01.826Z,74.76
2022-11-02T02:23:06.042Z,73.28
2022-11-02T02:25:53.443Z,75.32
2022-11-02T02:28:25.977Z,76.31
2022-11-02T02:30:57.442Z,77.37
2022-11-02T02:33:30.639Z,82.30
2022-11-02T02:36:00.727Z,84.51
2022-11-02T02:38:31.931Z,93.70
2022-11-02T02:41:07.783Z,92.81
2022-11-02T02:43:40.675Z,91.26
2022-11-02T02:46:10.605Z,91.20
2022-11-02T02:48:40.547Z,86.54
2022-11-02T02:51:10.761Z,88.04
2022-11-02T02:53:41.809Z,88.06
2022-11-02T02:56:10.732Z,90.24
2022-11-02T02:58:41.304Z,91.19
2022-11-02T03:01:12.365Z,88.43
2022-11-02T03:03:41.899Z,86.25
2022-11-02T03:06:17.407Z,85.43
2022-11-02T03:08:49.748Z,84.00
2022-11-02T03:11:19.231Z,83.65
2022-11-02T03:13:58.971Z,80.84
2022-11-02T03:16:39.853Z,81.95
2022-11-02T03:19:16.725Z,80.58
2022-11-02T03:21:45.512Z,79.67
2022-11-02T03:24:16.115Z,79.30
2022-11-02T03:26:48.737Z,79.49
2022-11-02T03:29:19.728Z,76.95
2022-11-02T03:31:51.196Z,78.18
2022-11-02T03:34:24.493Z,78.88
2022-11-02T03:36:56.016Z,78.30
2022-11-02T03:39:27.954Z,79.90
2022-11-02T03:41:56.475Z,81.60
2022-11-02T03:44:27.079Z,84.77
2022-11-02T03:46:59.583Z,81.61
2022-11-02T03:49:28.268Z,82.03
2022-11-02T03:51:57.283Z,81.87
2022-11-02T03:54:31.834Z,84.55
2022-11-02T03:57:00.845Z,85.07
2022-11-02T03:59:32.868Z,86.61
2022-11-02T04:02:01.116Z,86.15
2022-11-02T04:04:28.927Z,86.78
2022-11-02T04:06:56.933Z,87.41
2022-11-02T04:09:24.605Z,88.33
2022-11-02T04:12:21.506Z,90.38
2022-11-02T04:14:50.541Z,88.22
2022-11-02T04:17:35.878Z,86.72
2022-11-02T04:20:03.576Z,88.24
2022-11-02T04:22:49.091Z,87.22
2022-11-02T04:25:21.865Z,91.48
2022-11-02T04:27:50.921Z,89.19
2022-11-02T04:30:21.151Z,89.67
2022-11-02T04:33:07.420Z,90.56
2022-11-02T04:35:36.144Z,90.20
2022-11-02T04:38:21.433Z,89.83
2022-11-02T04:40:51.032Z,89.25
2022-11-02T04:43:18.739Z,90.45
2022-11-02T04:45:47.742Z,90.57
2022-11-02T04:48:15.409Z,91.71
2022-11-02T04:50:43.093Z,92.30
2022-11-02T04:53:10.755Z,92.76
2022-11-02T04:55:38.407Z,92.17
2022-11-02T04:58:06.331Z,91.19
2022-11-02T05:00:34.236Z,92.09
2022-11-02T05:03:05.703Z,91.29
2022-11-02T05:05:35.905Z,89.33
2022-11-02T05:08:03.740Z,88.88
2022-11-02T05:10:31.480Z,91.71
2022-11-02T05:12:59.274Z,87.14
2022-11-02T05:15:27.203Z,88.37
2022-11-02T05:17:55.087Z,87.17
2022-11-02T05:20:24.172Z,87.31
2022-11-02T05:22:51.844Z,86.00
2022-11-02T05:25:19.553Z,82.81
2022-11-02T05:27:47.187Z,85.44
2022-11-02T05:30:14.943Z,84.53
2022-11-02T05:32:42.575Z,82.95
2022-11-02T05:35:10.486Z,82.40
2022-11-02T05:37:39.524Z,80.94
2022-11-02T05:40:08.691Z,82.65
2022-11-02T05:42:36.369Z,79.99
2022-11-02T05:45:04.264Z,81.11
2022-11-02T05:47:31.956Z,81.52
2022-11-02T05:49:59.595Z,83.01
2022-11-02T05:52:27.257Z,82.81
2022-11-02T05:54:56.255Z,80.48
2022-11-02T05:57:23.956Z,83.47
2022-11-02T05:59:51.601Z,81.54
2022-11-02T06:02:23.258Z,82.88
2022-11-02T06:04:53.152Z,82.78
2022-11-02T06:07:20.801Z,82.72
2022-11-02T06:09:48.456Z,81.21
2022-11-02T06:12:17.495Z,80.18
2022-11-02T06:14:45.437Z,79.39
2022-11-02T06:17:13.109Z,79.45
2022-11-02T06:19:40.763Z,78.94
2022-11-02T06:22:08.455Z,78.95
2022-11-02T06:24:36.145Z,80.87
2022-11-02T06:27:03.849Z,80.07
2022-11-02T06:29:32.878Z,81.29
2022-11-02T06:32:00.541Z,79.43
2022-11-02T06:34:28.216Z,80.96
2022-11-02T06:36:55.903Z,78.02
2022-11-02T06:39:24.725Z,81.09
2022-11-02T06:41:52.426Z,80.46
2022-11-02T06:44:20.090Z,79.47
2022-11-02T06:46:49.122Z,81.49
2022-11-02T06:49:16.791Z,80.64
2022-11-02T06:51:44.446Z,80.91
2022-11-02T06:54:12.147Z,80.57
2022-11-02T06:56:39.784Z,83.99
2022-11-02T06:59:07.436Z,84.09
2022-11-02T07:01:36.128Z,87.51
2022-11-02T07:04:05.577Z,86.02
2022-11-02T07:06:33.463Z,84.19
2022-11-02T07:09:01.207Z,81.69
2022-11-02T07:11:28.865Z,84.78
2022-11-02T07:13:56.523Z,83.48
2022-11-02T07:16:25.167Z,85.99
2022-11-02T07:18:52.795Z,87.59
2022-11-02T07:21:21.868Z,92.90
2022-11-02T07:23:49.497Z,91.43
2022-11-02T07:26:17.204Z,94.71
2022-11-02T07:28:46.981Z,93.85
2022-11-02T07:31:14.679Z,93.32
2022-11-02T07:33:42.343Z,94.21
2022-11-02T07:36:10.576Z,91.95
2022-11-02T07:38:39.983Z,90.12
2022-11-02T07:41:07.676Z,89.15
2022-11-02T07:43:35.957Z,88.63
2022-11-02T07:46:06.046Z,88.07
2022-11-02T07:48:35.731Z,91.29
2022-11-02T07:51:03.372Z,90.23
2022-11-02T07:53:31.051Z,89.19
2022-11-02T07:56:00.945Z,88.65
2022-11-02T07:58:28.649Z,86.52
2022-11-02T08:00:59.909Z,83.19
2022-11-02T08:03:28.600Z,83.10
2022-11-02T08:05:56.383Z,81.53
2022-11-02T08:08:25.332Z,81.73
2022-11-02T08:10:53.773Z,82.78
2022-11-02T08:13:25.959Z,82.37
2022-11-02T08:15:54.808Z,81.84
2022-11-02T08:18:23.899Z,79.05
2022-11-02T08:20:52.089Z,77.36
2022-11-02T08:23:21.079Z,81.24
2022-11-02T08:25:50.332Z,79.43
2022-11-02T08:28:19.930Z,79.83
2022-11-02T08:30:48.972Z,79.10
2022-11-02T08:33:18.425Z,76.95
2022-11-02T08:35:47.365Z,81.43
2022-11-02T08:38:15.552Z,80.63
2022-11-02T08:40:43.536Z,82.27
2022-11-02T08:43:12.596Z,79.33
2022-11-02T08:48:30.490Z,77.71
2022-11-02T08:50:58.181Z,78.03
2022-11-02T08:53:25.815Z,78.79
2022-11-02T08:55:53.545Z,79.86
2022-11-02T08:58:21.362Z,78.36
2022-11-02T09:00:49.039Z,78.18
2022-11-02T09:03:20.619Z,77.75
2022-11-02T09:05:58.090Z,80.04
2022-11-02T09:08:26.026Z,78.80
2022-11-02T09:10:53.837Z,74.79
2022-11-02T09:13:25.323Z,73.56
2022-11-02T09:15:54.487Z,74.06
2022-11-02T09:18:22.533Z,71.72
2022-11-02T09:20:51.252Z,71.91
2022-11-02T09:23:21.463Z,72.46
2022-11-02T09:25:49.225Z,69.17
2022-11-02T09:28:17.051Z,69.07
2022-11-02T09:30:44.975Z,71.06
2022-11-02T09:33:13.429Z,69.55
2022-11-02T09:35:45.078Z,69.92
2022-11-02T09:38:12.959Z,70.31
2022-11-02T09:40:45.693Z,72.04
2022-11-02T09:43:20.587Z,70.22
2022-11-02T09:45:54.687Z,70.65
2022-11-02T09:48:28.592Z,71.19
2022-11-02T09:51:02.100Z,70.28
2022-11-02T09:53:36.669Z,71.02
2022-11-02T09:56:06.839Z,68.00
2022-11-02T09:58:38.348Z,67.58
2022-11-02T10:01:13.138Z,68.42
2022-11-02T10:03:50.199Z,68.51
2022-11-02T10:06:20.972Z,71.07
2022-11-02T10:08:53.517Z,72.56
2022-11-02T10:11:33.228Z,69.61
2022-11-02T10:14:02.862Z,70.88
2022-11-02T10:16:35.787Z,70.12
2022-11-02T10:19:05.736Z,69.46
2022-11-02T10:21:34.707Z,71.47
2022-11-02T10:24:09.167Z,72.33
2022-11-02T10:26:43.193Z,70.20
2022-11-02T10:29:17.280Z,71.38
2022-11-02T10:31:45.119Z,70.36
2022-11-02T10:34:22.812Z,69.85
2022-11-02T10:36:57.042Z,68.74
2022-11-02T10:39:32.200Z,67.39
2022-11-02T10:42:10.638Z,67.66
2022-11-02T10:44:51.425Z,68.32
2022-11-02T10:47:20.156Z,65.53
2022-11-02T10:50:15.417Z,61.25
2022-11-02T10:52:45.110Z,62.61
2022-11-02T10:55:20.733Z,66.52
2022-11-02T10:57:50.085Z,65.42
2022-11-02T11:00:29.507Z,64.62
2022-11-02T11:03:05.187Z,63.82
2022-11-02T11:05:33.154Z,64.20
2022-11-02T11:08:01.698Z,61.98
2022-11-02T11:10:30.120Z,63.42
2022-11-02T11:12:59.223Z,64.54
2022-11-02T11:21:02.592Z,65.55
2022-11-02T11:23:30.292Z,63.31
2022-11-02T11:25:59.789Z,61.15
2022-11-02T11:28:31.740Z,60.59
2022-11-02T11:31:05.369Z,61.35
2022-11-02T11:33:33.868Z,62.69
2022-11-02T11:36:01.707Z,61.54
2022-11-02T11:38:29.423Z,60.92
2022-11-02T11:40:59.087Z,60.01
2022-11-02T11:43:30.358Z,58.43
2022-11-02T11:46:05.362Z,58.74
2022-11-02T11:48:37.491Z,57.91
2022-11-02T11:51:05.994Z,59.45
2022-11-02T11:53:35.439Z,57.64
2022-11-02T11:56:03.085Z,59.59
2022-11-02T11:58:32.924Z,58.86
2022-11-02T12:01:09.385Z,58.74
2022-11-02T12:03:51.585Z,58.18
2022-11-02T12:06:25.160Z,57.25
2022-11-02T12:08:59.007Z,56.69
2022-11-02T12:11:43.883Z,55.64
2022-11-02T12:14:21.099Z,54.47
2022-11-02T12:17:19.443Z,54.62
2022-11-02T12:19:58.864Z,54.81
2022-11-02T12:22:35.206Z,57.13
2022-11-02T12:25:16.806Z,57.21
2022-11-02T12:27:51.999Z,57.40
2022-11-02T12:30:22.173Z,54.49
2022-11-02T12:32:58.700Z,52.78
2022-11-02T12:35:36.956Z,54.94
2022-11-02T12:38:28.653Z,55.86
2022-11-02T12:41:03.169Z,57.55
2022-11-02T12:43:41.271Z,57.67
2022-11-02T12:46:20.601Z,55.05
2022-11-02T12:48:54.879Z,55.50
2022-11-02T12:51:25.128Z,55.53
2022-11-02T12:53:56.704Z,55.78
2022-11-02T12:56:26.872Z,56.55
2022-11-02T12:58:55.138Z,57.88
2022-11-02T13:01:28.399Z,57.19
2022-11-02T13:03:59.109Z,55.16
2022-11-02T13:06:30.002Z,56.39
2022-11-02T13:08:59.555Z,55.23
2022-11-02T13:11:32.203Z,55.48
2022-11-02T13:14:00.564Z,56.21
2022-11-02T13:16:36.836Z,54.83
2022-11-02T13:19:05.173Z,54.03
2022-11-02T13:21:38.577Z,51.94
2022-11-02T13:24:14.602Z,55.54
2022-11-02T13:26:44.362Z,56.11
2022-11-02T13:29:16.977Z,56.85
2022-11-02T13:31:48.638Z,56.85
2022-11-02T13:34:20.365Z,55.32
2022-11-02T13:36:48.062Z,53.03
2022-11-02T13:39:18.668Z,52.73
2022-11-02T13:42:18.100Z,52.73
2022-11-02T13:45:03.125Z,54.02
2022-11-02T13:48:06.673Z,53.51
2022-11-02T13:50:36.067Z,53.83
2022-11-02T13:53:05.973Z,53.67
2022-11-02T13:55:44.515Z,53.42
2022-11-02T13:58:23.092Z,54.34
2022-11-02T14:00:51.215Z,53.04
2022-11-02T14:03:23.264Z,52.08
2022-11-02T14:05:53.729Z,53.43
2022-11-02T14:08:30.848Z,54.35
2022-11-02T14:11:26.561Z,55.17
2022-11-02T14:14:22.572Z,55.35
2022-11-02T14:17:00.638Z,54.21
2022-11-02T14:19:33.632Z,54.28
2022-11-02T14:22:10.573Z,55.33
2022-11-02T14:25:06.638Z,55.01
2022-11-02T14:27:34.887Z,54.44
2022-11-02T14:30:02.729Z,55.40
2022-11-02T14:32:41.224Z,55.86
2022-11-02T14:35:23.466Z,54.58
2022-11-02T14:38:05.637Z,55.79
2022-11-02T14:40:41.867Z,54.75
2022-11-02T14:43:39.561Z,55.25
2022-11-02T14:46:09.660Z,55.53
2022-11-02T14:48:46.224Z,55.28
2022-11-02T14:51:19.255Z,54.19
2022-11-02T14:53:47.038Z,54.80
2022-11-02T14:56:14.703Z,55.13
2022-11-02T14:58:50.283Z,56.05
2022-11-02T15:01:18.561Z,54.69
2022-11-02T15:03:48.233Z,54.99
2022-11-02T15:06:21.273Z,54.28
2022-11-02T15:08:54.792Z,55.28
2022-11-02T15:11:44.964Z,54.71
2022-11-02T15:14:49.782Z,54.98
2022-11-02T15:17:55.044Z,55.29
2022-11-02T15:20:31.232Z,54.79
2022-11-02T15:23:30.644Z,56.33
2022-11-02T15:25:59.977Z,56.12
2022-11-02T15:28:29.697Z,56.31
2022-11-02T15:30:59.440Z,57.16
2022-11-02T15:33:36.839Z,56.39
2022-11-02T15:36:06.510Z,58.08
2022-11-02T15:38:40.042Z,57.05
2022-11-02T15:41:18.123Z,56.81
2022-11-02T15:44:16.376Z,57.06
2022-11-02T15:46:53.528Z,58.05
2022-11-02T15:49:31.885Z,59.56
2022-11-02T15:52:04.085Z,60.33
2022-11-02T15:54:49.440Z,60.52
2022-11-02T15:57:25.769Z,60.84
2022-11-02T16:00:15.566Z,60.32
2022-11-02T16:02:45.395Z,60.53
2022-11-02T16:05:21.873Z,60.84
2022-11-02T16:08:09.577Z,60.56
2022-11-02T16:10:39.252Z,61.33
2022-11-02T16:13:16.848Z,60.91
2022-11-02T16:15:45.035Z,61.34
2022-11-02T16:18:31.343Z,61.98
2022-11-02T16:21:01.991Z,61.99
2022-11-02T16:23:31.283Z,63.61
2022-11-02T16:26:01.427Z,64.25
2022-11-02T16:28:31.043Z,64.26
2022-11-02T16:31:06.929Z,64.27
2022-11-02T16:33:40.375Z,63.13
2022-11-02T16:36:08.706Z,64.22
2022-11-02T16:38:36.952Z,64.79
2022-11-02T16:41:08.795Z,64.42
2022-11-02T16:43:41.627Z,64.26
2022-11-02T16:46:15.552Z,65.68
2022-11-02T16:49:03.150Z,64.52
2022-11-02T16:51:31.543Z,64.80
2022-11-02T16:54:18.450Z,64.74
2022-11-02T16:56:49.675Z,65.26
2022-11-02T16:59:17.365Z,65.94
2022-11-02T17:01:45.620Z,66.28
2022-11-02T17:04:19.536Z,66.74
2022-11-02T17:06:47.531Z,66.42
2022-11-02T17:09:26.797Z,67.17
2022-11-02T17:11:57.969Z,66.42
2022-11-02T17:14:26.696Z,66.16
2022-11-02T17:16:59.087Z,65.99
2022-11-02T17:19:47.538Z,66.29
2022-11-02T17:22:24.771Z,66.25
2022-11-02T17:25:05.209Z,68.05
2022-11-02T17:27:39.194Z,69.62
2022-11-02T17:30:43.692Z,69.55
2022-11-02T17:33:17.231Z,70.71
2022-11-02T17:35:49.072Z,70.13
2022-11-02T17:38:16.874Z,69.29
2022-11-02T17:40:44.614Z,71.37
2022-11-02T17:43:12.665Z,71.48
2022-11-02T17:45:40.455Z,71.19
2022-11-02T17:48:10.762Z,70.12
2022-11-02T17:50:40.232Z,70.05
2022-11-02T17:53:11.727Z,69.52
2022-11-02T17:55:39.469Z,72.23
2022-11-02T17:58:07.872Z,72.53
2022-11-02T18:00:37.704Z,70.78
2022-11-02T18:03:05.943Z,71.46
2022-11-02T18:05:36.562Z,70.79
2022-11-02T18:08:06.695Z,73.44
2022-11-02T18:10:36.504Z,72.91
2022-11-02T18:13:04.905Z,72.94
2022-11-02T18:15:34.238Z,72.19
2022-11-02T18:18:03.633Z,72.82
2022-11-02T18:20:32.908Z,70.82
2022-11-02T18:23:02.920Z,71.63
2022-11-02T18:25:31.267Z,72.58
2022-11-02T18:27:59.516Z,71.82
2022-11-02T18:30:27.796Z,71.04
2022-11-02T18:32:56.422Z,72.21
2022-11-02T18:35:26.263Z,71.78
2022-11-02T18:37:53.927Z,71.43
2022-11-02T18:40:21.726Z,70.70
2022-11-02T18:42:49.391Z,69.91
2022-11-02T18:45:17.526Z,69.87
2022-11-02T18:47:45.262Z,69.79
2022-11-02T18:50:14.107Z,71.03
2022-11-02T18:52:48.811Z,69.91
2022-11-02T18:55:16.503Z,69.36
2022-11-02T18:57:45.364Z,69.75
2022-11-02T19:00:14.127Z,69.99
2022-11-02T19:02:41.798Z,69.77
2022-11-02T19:05:29.876Z,69.24
2022-11-02T19:08:19.041Z,69.63
2022-11-02T19:10:47.624Z,69.09
2022-11-02T19:13:15.482Z,69.02
2022-11-02T19:15:43.153Z,68.97
2022-11-02T19:18:11.135Z,70.21
2022-11-02T19:20:38.952Z,69.60
2022-11-02T19:23:08.579Z,68.86
2022-11-02T19:25:36.420Z,68.28
2022-11-02T19:28:04.924Z,67.93
2022-11-02T19:30:32.922Z,68.82
2022-11-02T19:33:00.608Z,67.84
2022-11-02T19:35:28.262Z,66.91
2022-11-02T19:37:58.205Z,67.22
2022-11-02T19:40:27.303Z,66.54
2022-11-02T19:42:54.965Z,66.72
2022-11-02T19:45:22.616Z,65.99
2022-11-02T19:47:50.447Z,66.67
2022-11-02T19:50:18.272Z,66.17
2022-11-02T19:52:46.454Z,65.73
2022-11-02T19:55:14.169Z,65.20
2022-11-02T19:57:43.959Z,65.36
2022-11-02T20:00:12.815Z,65.01
2022-11-02T20:02:40.566Z,63.88
2022-11-02T20:05:09.164Z,65.12
2022-11-02T20:07:36.830Z,64.67
2022-11-02T20:10:04.855Z,64.65
2022-11-02T20:12:34.108Z,65.05
2022-11-02T20:15:03.347Z,64.91
2022-11-02T20:17:38.153Z,63.66
2022-11-02T20:20:14.528Z,64.46
2022-11-02T20:22:43.180Z,62.92
2022-11-02T20:25:10.970Z,66.47
2022-11-02T20:27:40.687Z,63.50
2022-11-02T20:30:10.772Z,63.28
2022-11-02T20:32:38.570Z,65.60
2022-11-02T20:35:12.487Z,64.30
2022-11-02T20:37:41.250Z,64.69
2022-11-02T20:40:10.025Z,65.35
2022-11-02T20:42:37.693Z,64.61
2022-11-02T20:45:05.993Z,65.83
2022-11-02T20:47:35.322Z,64.38
2022-11-02T20:50:02.980Z,64.33
2022-11-02T20:52:30.654Z,63.92
2022-11-02T20:54:58.298Z,63.93
2022-11-02T20:57:28.271Z,63.58
2022-11-02T20:59:55.935Z,63.93
2022-11-02T21:02:24.681Z,65.90
2022-11-02T21:04:53.786Z,64.96
2022-11-02T21:07:21.439Z,64.35
2022-11-02T21:09:49.153Z,64.05
2022-11-02T21:12:33.605Z,63.86
2022-11-02T21:15:01.329Z,63.81
2022-11-02T21:17:29.355Z,63.83
2022-11-02T21:20:14.246Z,65.09
2022-11-02T21:22:46.036Z,64.33
2022-11-02T21:25:13.703Z,65.78
2022-11-02T21:27:41.376Z,64.57
2022-11-02T21:30:10.309Z,64.58
2022-11-02T21:32:37.930Z,66.51
2022-11-02T21:35:07.940Z,65.49
2022-11-02T21:37:35.628Z,65.84
2022-11-02T21:40:04.180Z,65.59
2022-11-02T21:42:31.838Z,65.32
2022-11-02T21:44:59.532Z,65.44
2022-11-02T21:47:34.019Z,65.99
2022-11-02T21:50:02.289Z,66.00
2022-11-02T21:52:31.296Z,67.79
2022-11-02T21:54:58.957Z,66.75
2022-11-02T21:57:26.606Z,66.21
2022-11-02T21:59:54.298Z,66.94
2022-11-02T22:02:22.279Z,65.90
2022-11-02T22:04:53.389Z,66.11
2022-11-02T22:07:21.049Z,67.11
2022-11-02T22:09:50.332Z,66.32
2022-11-02T22:12:35.398Z,65.74
2022-11-02T22:15:03.107Z,66.24
2022-11-02T22:20:18.459Z,66.75
2022-11-02T22:22:46.352Z,67.40
2022-11-02T22:25:15.363Z,65.67
2022-11-02T22:27:43.008Z,65.42
2022-11-02T22:30:11.679Z,65.82
2022-11-02T22:32:39.434Z,65.98
2022-11-02T22:35:07.722Z,66.34
2022-11-02T22:37:52.986Z,65.99
2022-11-02T22:40:21.992Z,65.67
2022-11-02T22:42:54.593Z,65.54
2022-11-02T22:45:22.252Z,66.32
2022-11-02T22:47:50.001Z,65.51
2022-11-02T22:50:17.620Z,65.83
2022-11-02T22:52:45.279Z,66.19
2022-11-02T22:55:12.997Z,65.14
2022-11-02T22:57:43.089Z,65.34
2022-11-02T23:00:12.344Z,66.13
2022-11-02T23:02:39.961Z,65.90
2022-11-02T23:05:08.208Z,65.07
2022-11-02T23:07:35.911Z,66.51
2022-11-02T23:10:23.554Z,66.14
2022-11-02T23:12:51.721Z,66.38
2022-11-02T23:15:19.382Z,65.30
2022-11-02T23:17:49.239Z,65.95
2022-11-02T23:20:16.139Z,65.19
2022-11-02T23:23:01.316Z,66.48
2022-11-02T23:25:28.936Z,65.99
2022-11-02T23:28:16.631Z,67.29
2022-11-02T23:31:02.248Z,66.26
2022-11-02T23:33:31.709Z,66.30
2022-11-02T23:36:12.137Z,67.96
2022-11-02T23:38:57.451Z,67.34
2022-11-02T23:41:26.004Z,67.11
2022-11-02T23:44:11.361Z,68.21
2022-11-02T23:46:39.841Z,67.54
2022-11-02T23:49:07.491Z,66.55
2022-11-02T23:51:55.028Z,68.72
2022-11-02T23:54:40.428Z,69.04
2022-11-02T23:57:08.113Z,68.24
2022-11-02T23:59:37.148Z,68.25
